createdAt,value
2018-01-25T18:35:30.257Z,425
2018-01-25T18:35:43.284Z,425
2018-01-25T18:35:56.367Z,425
2018-01-25T18:36:08.556Z,420
2018-01-25T18:36:21.199Z,420
2018-01-25T18:36:33.312Z,420
2018-01-25T18:36:46.368Z,415
2018-01-25T18:36:59.001Z,420
2018-01-25T18:37:11.112Z,425
2018-01-25T18:37:24.175Z,430
2018-01-25T18:37:37.260Z,435
2018-01-25T18:37:49.844Z,435
2018-01-25T18:38:02.909Z,440
2018-01-25T18:38:15.530Z,445
2018-01-25T18:38:28.702Z,445
2018-01-25T18:38:41.354Z,450
2018-01-25T18:38:54.468Z,450
2018-01-25T18:39:07.075Z,450
2018-01-25T18:39:20.126Z,450
2018-01-25T18:39:33.212Z,445
2018-01-25T18:39:45.828Z,450
2018-01-25T18:39:58.902Z,450
2018-01-25T18:40:11.557Z,450
2018-01-25T18:40:24.076Z,450
2018-01-25T18:40:37.237Z,450
2018-01-25T18:40:49.386Z,450
2018-01-25T18:41:02.398Z,450
2018-01-25T18:41:14.974Z,450
2018-01-25T18:41:28.115Z,445
2018-01-25T18:41:40.235Z,450
2018-01-25T18:41:52.880Z,450
2018-01-25T18:42:05.526Z,450
2018-01-25T18:42:17.181Z,450
2018-01-25T18:42:29.778Z,450
2018-01-25T18:42:41.930Z,450
2018-01-25T18:42:55.005Z,455
2018-01-25T18:43:07.089Z,460
2018-01-25T18:43:19.756Z,455
2018-01-25T18:43:31.918Z,460
2018-01-25T18:43:44.982Z,460
2018-01-25T18:43:58.072Z,470
2018-01-25T18:44:10.612Z,510
2018-01-25T18:44:22.741Z,535
2018-01-25T18:44:35.795Z,545
2018-01-25T18:44:47.898Z,535
2018-01-25T18:45:00.951Z,510
2018-01-25T18:45:13.160Z,505
2018-01-25T18:45:25.240Z,495
2018-01-25T18:45:37.929Z,495
2018-01-25T18:45:50.565Z,485
2018-01-25T18:46:03.179Z,480
2018-01-25T18:46:16.212Z,465
2018-01-25T18:46:28.828Z,460
2018-01-25T18:46:41.823Z,450
2018-01-25T18:46:54.948Z,445
2018-01-25T18:47:07.179Z,440
2018-01-25T18:47:19.807Z,440
2018-01-25T18:47:32.374Z,445
2018-01-25T18:47:45.318Z,440
2018-01-25T18:47:57.443Z,445
2018-01-25T18:48:09.593Z,440
2018-01-25T18:48:22.702Z,445
2018-01-25T18:48:35.367Z,450
2018-01-25T18:48:48.393Z,450
2018-01-25T18:49:01.431Z,445
2018-01-25T18:49:14.483Z,450
2018-01-25T18:49:27.583Z,450
2018-01-25T18:49:40.183Z,470
2018-01-25T18:49:52.829Z,490
2018-01-25T18:50:04.925Z,485
2018-01-25T18:50:17.084Z,485
2018-01-25T18:50:29.271Z,470
2018-01-25T18:50:42.404Z,460
2018-01-25T18:50:54.159Z,445
2018-01-25T18:51:05.328Z,440
2018-01-25T18:51:17.931Z,430
2018-01-25T18:51:30.534Z,420
2018-01-25T18:51:43.669Z,420
2018-01-25T18:51:56.764Z,415
2018-01-25T18:52:09.491Z,415
2018-01-25T18:52:22.139Z,415
2018-01-25T18:52:35.254Z,415
2018-01-25T18:52:48.311Z,415
2018-01-25T18:53:00.478Z,420
2018-01-25T18:53:13.640Z,415
2018-01-25T18:53:26.215Z,420
2018-01-25T18:53:39.315Z,425
2018-01-25T18:53:52.340Z,425
2018-01-25T18:54:05.324Z,430
2018-01-25T18:54:17.888Z,430
2018-01-25T18:54:30.459Z,430
2018-01-25T18:54:43.466Z,430
2018-01-25T18:54:56.154Z,430
2018-01-25T18:55:08.259Z,440
2018-01-25T18:55:20.781Z,435
2018-01-25T18:55:32.977Z,435
2018-01-25T18:55:46.065Z,435
2018-01-25T18:55:58.660Z,435
2018-01-25T18:56:11.834Z,435
2018-01-25T18:56:24.975Z,440
2018-01-25T18:56:38.027Z,450
2018-01-25T18:56:51.174Z,450
2018-01-25T18:57:04.294Z,450
2018-01-25T18:57:16.956Z,455
2018-01-25T18:57:29.672Z,465
2018-01-25T18:57:42.296Z,470
2018-01-25T18:57:54.878Z,460
2018-01-25T18:58:07.511Z,460
2018-01-25T18:58:20.557Z,455
2018-01-25T18:58:33.630Z,465
2018-01-25T18:58:46.378Z,470
2018-01-25T18:58:59.561Z,490
2018-01-25T18:59:12.654Z,495
2018-01-25T18:59:25.282Z,510
2018-01-25T18:59:37.915Z,525
2018-01-25T18:59:51.106Z,530
2018-01-25T19:00:04.249Z,530
2018-01-25T19:00:16.871Z,530
2018-01-25T19:00:30.027Z,520
2018-01-25T19:00:42.771Z,520
2018-01-25T19:00:55.912Z,520
2018-01-25T19:01:08.058Z,520
2018-01-25T19:01:20.320Z,515
2018-01-25T19:01:33.000Z,520
2018-01-25T19:01:46.249Z,515
2018-01-25T19:01:58.509Z,515
2018-01-25T19:02:11.200Z,515
2018-01-25T19:02:22.890Z,515
2018-01-25T19:02:35.748Z,515
2018-01-25T19:02:49.056Z,510
2018-01-25T19:03:02.137Z,510
2018-01-25T19:03:14.808Z,510
2018-01-25T19:03:27.931Z,510
2018-01-25T19:03:41.149Z,505
2018-01-25T19:03:54.250Z,505
2018-01-25T19:04:06.855Z,500
2018-01-25T19:04:19.484Z,500
2018-01-25T19:04:32.182Z,500
2018-01-25T19:04:45.326Z,500
2018-01-25T19:04:57.972Z,495
2018-01-25T19:05:11.153Z,495
2018-01-25T19:05:23.388Z,490
2018-01-25T19:05:36.514Z,485
2018-01-25T19:05:49.140Z,485
2018-01-25T19:06:02.280Z,480
2018-01-25T19:06:15.038Z,480
2018-01-25T19:06:27.725Z,480
2018-01-25T19:06:40.991Z,480
2018-01-25T19:06:54.197Z,480
2018-01-25T19:07:07.418Z,485
2018-01-25T19:07:20.658Z,485
2018-01-25T19:07:33.898Z,490
2018-01-25T19:07:46.974Z,490
2018-01-25T19:07:59.603Z,490
2018-01-25T19:08:11.916Z,495
2018-01-25T19:08:25.084Z,495
2018-01-25T19:08:38.309Z,495
2018-01-25T19:08:51.557Z,500
2018-01-25T19:09:04.240Z,500
2018-01-25T19:09:16.516Z,500
2018-01-25T19:09:29.774Z,505
2018-01-25T19:09:41.565Z,505
2018-01-25T19:09:54.788Z,505
2018-01-25T19:10:07.533Z,505
2018-01-25T19:10:20.798Z,505
2018-01-25T19:10:33.563Z,505
2018-01-25T19:10:46.741Z,505
2018-01-25T19:10:59.416Z,505
2018-01-25T19:11:11.712Z,505
2018-01-25T19:11:24.495Z,505
2018-01-25T19:11:37.768Z,505
2018-01-25T19:11:49.976Z,505
2018-01-25T19:12:02.715Z,505
2018-01-25T19:12:15.518Z,500
2018-01-25T19:12:28.668Z,500
2018-01-25T19:12:41.870Z,500
2018-01-25T19:12:55.114Z,500
2018-01-25T19:13:07.826Z,500
2018-01-25T19:13:20.502Z,495
2018-01-25T19:13:32.688Z,495
2018-01-25T19:13:45.384Z,490
2018-01-25T19:13:58.584Z,490
2018-01-25T19:14:10.869Z,490
2018-01-25T19:14:24.071Z,490
2018-01-25T19:14:36.787Z,485
2018-01-25T19:14:49.955Z,485
2018-01-25T19:15:02.709Z,480
2018-01-25T19:15:15.399Z,475
2018-01-25T19:15:28.122Z,470
2018-01-25T19:15:41.292Z,470
2018-01-25T19:15:53.554Z,465
2018-01-25T19:16:06.749Z,465
2018-01-25T19:16:18.974Z,470
2018-01-25T19:16:32.126Z,470
2018-01-25T19:16:44.874Z,465
2018-01-25T19:16:57.971Z,465
2018-01-25T19:17:10.171Z,465
2018-01-25T19:17:23.310Z,465
2018-01-25T19:17:36.024Z,460
2018-01-25T19:17:49.501Z,460
2018-01-25T19:18:02.707Z,465
2018-01-25T19:18:14.918Z,460
2018-01-25T19:18:28.054Z,465
2018-01-25T19:18:40.774Z,470
2018-01-25T19:18:53.986Z,470
2018-01-25T19:19:06.705Z,475
2018-01-25T19:19:19.406Z,470
2018-01-25T19:19:32.086Z,470
2018-01-25T19:19:45.195Z,475
2018-01-25T19:19:58.322Z,475
2018-01-25T19:20:11.496Z,470
2018-01-25T19:20:24.566Z,470
2018-01-25T19:20:37.696Z,465
2018-01-25T19:20:50.893Z,460
2018-01-25T19:21:03.960Z,460
2018-01-25T19:21:16.173Z,455
2018-01-25T19:21:29.333Z,455
2018-01-25T19:21:42.463Z,455
2018-01-25T19:21:54.688Z,455
2018-01-25T19:22:06.943Z,455
2018-01-25T19:22:19.567Z,455
2018-01-25T19:22:32.694Z,450
2018-01-25T19:22:44.928Z,450
2018-01-25T19:22:57.211Z,450
2018-01-25T19:23:10.411Z,450
2018-01-25T19:23:22.111Z,450
2018-01-25T19:23:34.309Z,445
2018-01-25T19:23:46.070Z,450
2018-01-25T19:23:58.193Z,450
2018-01-25T19:24:10.871Z,455
2018-01-25T19:24:24.074Z,460
2018-01-25T19:24:36.276Z,460
2018-01-25T19:24:48.962Z,460
2018-01-25T19:25:01.615Z,465
2018-01-25T19:25:14.261Z,465
2018-01-25T19:25:26.475Z,470
2018-01-25T19:25:39.260Z,475
2018-01-25T19:25:51.936Z,475
2018-01-25T19:26:04.620Z,480
2018-01-25T19:26:17.309Z,485
2018-01-25T19:26:30.446Z,485
2018-01-25T19:26:43.230Z,490
2018-01-25T19:26:56.457Z,495
2018-01-25T19:27:09.766Z,495
2018-01-25T19:27:22.059Z,500
2018-01-25T19:27:35.279Z,505
2018-01-25T19:27:48.555Z,510
2018-01-25T19:28:01.390Z,515
2018-01-25T19:28:14.154Z,465
2018-01-25T19:28:26.961Z,520
2018-01-25T19:28:40.128Z,525
2018-01-25T19:28:53.268Z,530
2018-01-25T19:29:05.976Z,530
2018-01-25T19:29:18.675Z,545
2018-01-25T19:29:31.843Z,550
2018-01-25T19:29:45.010Z,555
2018-01-25T19:29:57.676Z,560
2018-01-25T19:30:10.420Z,555
2018-01-25T19:30:23.192Z,550
2018-01-25T19:30:36.403Z,545
2018-01-25T19:30:48.643Z,540
2018-01-25T19:31:01.337Z,530
2018-01-25T19:31:13.978Z,525
2018-01-25T19:31:27.020Z,505
2018-01-25T19:31:40.096Z,460
2018-01-25T19:31:53.332Z,440
2018-01-25T19:32:06.442Z,435
2018-01-25T19:32:19.098Z,430
2018-01-25T19:32:31.278Z,425
2018-01-25T19:32:44.314Z,425
2018-01-25T19:32:57.339Z,420
2018-01-25T19:33:10.408Z,425
2018-01-25T19:33:22.498Z,425
2018-01-25T19:33:34.693Z,425
2018-01-25T19:33:47.867Z,415
2018-01-25T19:34:00.958Z,430
2018-01-25T19:34:13.108Z,420
2018-01-25T19:34:25.666Z,445
2018-01-25T19:34:38.200Z,435
2018-01-25T19:34:51.197Z,445
2018-01-25T19:35:04.240Z,445
2018-01-25T19:35:17.333Z,440
2018-01-25T19:35:29.931Z,430
2018-01-25T19:35:43.039Z,385
2018-01-25T19:35:56.151Z,380
2018-01-25T19:36:09.276Z,385
2018-01-25T19:36:21.935Z,385
2018-01-25T19:36:34.524Z,415
2018-01-25T19:36:47.118Z,365
2018-01-25T19:37:00.154Z,375
2018-01-25T19:37:13.274Z,430
2018-01-25T19:37:26.339Z,400
2018-01-25T19:37:39.327Z,405
2018-01-25T19:37:51.920Z,375
2018-01-25T19:38:04.454Z,385
2018-01-25T19:38:17.518Z,365
2018-01-25T19:38:30.516Z,365
2018-01-25T19:38:43.074Z,365
2018-01-25T19:38:55.644Z,360
2018-01-25T19:39:07.709Z,355
2018-01-25T19:39:20.284Z,340
2018-01-25T19:39:32.445Z,330
2018-01-25T19:39:45.543Z,325
2018-01-25T19:39:58.592Z,325
2018-01-25T19:40:10.721Z,315
2018-01-25T19:40:22.842Z,320
2018-01-25T19:40:35.899Z,315
2018-01-25T19:40:48.986Z,315
2018-01-25T19:41:02.123Z,315
2018-01-25T19:41:14.778Z,315
2018-01-25T19:41:27.324Z,310
2018-01-25T19:41:40.339Z,300
2018-01-25T19:41:52.447Z,295
2018-01-25T19:42:05.056Z,295
2018-01-25T19:42:17.591Z,285
2018-01-25T19:42:30.666Z,280
2018-01-25T19:42:43.764Z,280
2018-01-25T19:42:56.419Z,265
2018-01-25T19:43:08.993Z,260
2018-01-25T19:43:22.039Z,255
2018-01-25T19:43:35.095Z,250
2018-01-25T19:43:48.186Z,250
2018-01-25T19:44:00.705Z,250
2018-01-25T19:44:13.021Z,250
2018-01-25T19:44:25.647Z,250
2018-01-25T19:44:38.177Z,250
2018-01-25T19:44:51.308Z,245
2018-01-25T19:45:03.918Z,245
2018-01-25T19:45:16.603Z,245
2018-01-25T19:45:28.709Z,240
2018-01-25T19:45:40.420Z,240
2018-01-25T19:45:53.517Z,240
2018-01-25T19:46:06.508Z,240
2018-01-25T19:46:18.682Z,245
2018-01-25T19:46:31.797Z,245
2018-01-25T19:46:44.529Z,245
2018-01-25T19:46:57.552Z,250
2018-01-25T19:47:09.661Z,255
2018-01-25T19:47:21.799Z,255
2018-01-25T19:47:34.871Z,265
2018-01-25T19:47:47.920Z,265
2018-01-25T19:48:00.960Z,265
2018-01-25T19:48:13.982Z,270
2018-01-25T19:48:26.595Z,260
2018-01-25T19:48:39.204Z,255
2018-01-25T19:48:52.312Z,255
2018-01-25T19:49:04.938Z,255
2018-01-25T19:49:17.541Z,255
2018-01-25T19:49:30.132Z,255
2018-01-25T19:49:43.221Z,255
2018-01-25T19:49:55.299Z,250
2018-01-25T19:50:08.400Z,250
2018-01-25T19:50:21.045Z,245
2018-01-25T19:50:34.153Z,235
2018-01-25T19:50:47.219Z,230
2018-01-25T19:50:59.330Z,225
2018-01-25T19:51:11.007Z,220
2018-01-25T19:51:23.576Z,220
2018-01-25T19:51:36.107Z,220
2018-01-25T19:51:49.158Z,215
2018-01-25T19:52:02.296Z,215
2018-01-25T19:52:13.994Z,210
2018-01-25T19:52:26.536Z,205
2018-01-25T19:52:39.660Z,200
2018-01-25T19:52:52.263Z,195
2018-01-25T19:53:04.879Z,190
2018-01-25T19:53:17.936Z,190
2018-01-25T19:53:30.531Z,185
2018-01-25T19:53:43.510Z,185
2018-01-25T19:53:56.660Z,185
2018-01-25T19:54:09.307Z,180
2018-01-25T19:54:21.471Z,180
2018-01-25T19:54:33.602Z,175
2018-01-25T19:54:46.197Z,175
2018-01-25T19:54:59.273Z,170
2018-01-25T19:55:12.353Z,170
2018-01-25T19:55:25.483Z,165
2018-01-25T19:55:38.100Z,165
2018-01-25T19:55:50.703Z,165
2018-01-25T19:56:03.342Z,165
2018-01-25T19:56:15.921Z,165
2018-01-25T19:56:28.894Z,165
2018-01-25T19:56:42.000Z,160
2018-01-25T19:56:54.165Z,160
2018-01-25T19:57:06.758Z,160
2018-01-25T19:57:19.808Z,155
2018-01-25T19:57:32.451Z,155
2018-01-25T19:57:44.556Z,150
2018-01-25T19:57:57.184Z,145
2018-01-25T19:58:09.802Z,140
2018-01-25T19:58:22.812Z,135
2018-01-25T19:58:35.903Z,135
2018-01-25T19:58:48.957Z,135
2018-01-25T19:59:02.083Z,135
2018-01-25T19:59:14.618Z,130
2018-01-25T19:59:26.760Z,130
2018-01-25T19:59:38.947Z,130
2018-01-25T19:59:51.075Z,130
2018-01-25T20:00:02.730Z,130
2018-01-25T20:00:14.324Z,130
2018-01-25T20:00:26.854Z,130
2018-01-25T20:00:39.059Z,130
2018-01-25T20:00:51.673Z,130
2018-01-25T20:01:03.274Z,130
2018-01-25T20:01:15.804Z,135
2018-01-25T20:01:28.292Z,135
2018-01-25T20:01:41.283Z,140
2018-01-25T20:01:54.376Z,145
2018-01-25T20:02:06.519Z,145
2018-01-25T20:02:19.135Z,140
2018-01-25T20:02:31.693Z,140
2018-01-25T20:02:44.751Z,140
2018-01-25T20:02:57.798Z,145
2018-01-25T20:03:09.629Z,145
2018-01-25T20:03:22.184Z,145
2018-01-25T20:03:34.336Z,140
2018-01-25T20:03:47.479Z,140
2018-01-25T20:04:00.034Z,140
2018-01-25T20:04:12.644Z,140
2018-01-25T20:04:25.305Z,140
2018-01-25T20:04:38.383Z,140
2018-01-25T20:04:51.483Z,140
2018-01-25T20:05:04.554Z,135
2018-01-25T20:05:17.208Z,135
2018-01-25T20:05:30.283Z,130
2018-01-25T20:05:42.840Z,130
2018-01-25T20:05:55.451Z,125
2018-01-25T20:06:08.073Z,125
2018-01-25T20:06:20.701Z,125
2018-01-25T20:06:33.784Z,125
2018-01-25T20:06:46.378Z,125
2018-01-25T20:06:58.907Z,120
2018-01-25T20:07:11.968Z,120
2018-01-25T20:07:24.590Z,125
2018-01-25T20:07:36.703Z,125
2018-01-25T20:07:48.775Z,125
2018-01-25T20:08:01.390Z,125
2018-01-25T20:08:14.491Z,130
2018-01-25T20:08:27.560Z,130
2018-01-25T20:08:39.774Z,135
2018-01-25T20:08:52.418Z,135
2018-01-25T20:09:04.563Z,135
2018-01-25T20:09:17.230Z,140
2018-01-25T20:09:29.370Z,140
2018-01-25T20:09:41.900Z,145
2018-01-25T20:09:54.500Z,150
2018-01-25T20:10:07.669Z,150
2018-01-25T20:10:20.690Z,150
2018-01-25T20:10:33.263Z,155
2018-01-25T20:10:46.368Z,160
2018-01-25T20:10:58.947Z,165
2018-01-25T20:11:11.941Z,170
2018-01-25T20:11:24.580Z,175
2018-01-25T20:11:37.315Z,175
2018-01-25T20:11:50.371Z,180
2018-01-25T20:12:02.969Z,185
2018-01-25T20:12:15.026Z,185
2018-01-25T20:12:28.044Z,185
2018-01-25T20:12:40.559Z,185
2018-01-25T20:12:53.657Z,180
2018-01-25T20:13:06.267Z,175
2018-01-25T20:13:18.429Z,170
2018-01-25T20:13:31.024Z,160
2018-01-25T20:13:44.129Z,150
2018-01-25T20:13:56.802Z,140
2018-01-25T20:14:08.976Z,130
2018-01-25T20:14:21.610Z,120
2018-01-25T20:14:34.693Z,120
2018-01-25T20:14:47.329Z,115
2018-01-25T20:14:59.932Z,110
2018-01-25T20:15:13.040Z,105
2018-01-25T20:15:25.147Z,105
2018-01-25T20:15:37.752Z,105
2018-01-25T20:15:50.905Z,105
2018-01-25T20:16:03.915Z,105
2018-01-25T20:16:16.982Z,105
2018-01-25T20:16:30.048Z,105
2018-01-25T20:16:43.177Z,110
2018-01-25T20:16:55.758Z,115
2018-01-25T20:17:08.422Z,115
2018-01-25T20:17:20.617Z,115
2018-01-25T20:17:33.229Z,115
2018-01-25T20:17:46.248Z,115
2018-01-25T20:17:59.391Z,115
2018-01-25T20:18:12.638Z,115
2018-01-25T20:18:25.202Z,120
2018-01-25T20:18:37.804Z,120
2018-01-25T20:18:50.911Z,120
2018-01-25T20:19:03.008Z,125
2018-01-25T20:19:15.105Z,130
2018-01-25T20:19:27.180Z,130
2018-01-25T20:19:39.747Z,135
2018-01-25T20:19:51.395Z,135
2018-01-25T20:20:04.518Z,135
2018-01-25T20:20:17.648Z,135
2018-01-25T20:20:30.680Z,135
2018-01-25T20:20:43.837Z,130
2018-01-25T20:20:56.915Z,130
2018-01-25T20:21:09.963Z,130
2018-01-25T20:21:23.010Z,125
2018-01-25T20:21:35.566Z,125
2018-01-25T20:21:48.130Z,125
2018-01-25T20:22:00.723Z,125
2018-01-25T20:22:13.352Z,125
2018-01-25T20:22:24.958Z,125
2018-01-25T20:22:37.569Z,125
2018-01-25T20:22:50.653Z,125
2018-01-25T20:23:03.707Z,125
2018-01-25T20:23:17.031Z,125
2018-01-25T20:23:30.068Z,125
2018-01-25T20:23:43.243Z,125
2018-01-25T20:23:56.341Z,120
2018-01-25T20:24:08.891Z,120
2018-01-25T20:24:20.485Z,115
2018-01-25T20:24:33.484Z,115
2018-01-25T20:24:46.495Z,110
2018-01-25T20:24:59.520Z,110
2018-01-25T20:25:12.627Z,110
2018-01-25T20:25:24.311Z,110
2018-01-25T20:25:37.337Z,115
2018-01-25T20:25:49.393Z,115
2018-01-25T20:26:01.958Z,120
2018-01-25T20:26:15.011Z,120
2018-01-25T20:26:27.621Z,115
2018-01-25T20:26:40.632Z,115
2018-01-25T20:26:53.718Z,110
2018-01-25T20:27:06.757Z,105
2018-01-25T20:27:18.911Z,100
2018-01-25T20:27:31.492Z,95
2018-01-25T20:27:44.609Z,90
2018-01-25T20:27:57.705Z,90
2018-01-25T20:28:10.837Z,90
2018-01-25T20:28:22.988Z,85
2018-01-25T20:28:35.537Z,85
2018-01-25T20:28:47.649Z,85
2018-01-25T20:29:00.217Z,85
2018-01-25T20:29:13.265Z,80
2018-01-25T20:29:26.393Z,80
2018-01-25T20:29:39.452Z,80
2018-01-25T20:29:52.530Z,75
2018-01-25T20:30:05.116Z,75
2018-01-25T20:30:17.669Z,75
2018-01-25T20:30:29.815Z,75
2018-01-25T20:30:42.456Z,75
2018-01-25T20:30:55.494Z,75
2018-01-25T20:31:07.128Z,75
2018-01-25T20:31:19.327Z,75
2018-01-25T20:31:31.446Z,75
2018-01-25T20:31:44.022Z,75
2018-01-25T20:31:56.631Z,70
2018-01-25T20:32:09.782Z,70
2018-01-25T20:32:22.016Z,65
2018-01-25T20:32:34.560Z,65
2018-01-25T20:32:46.695Z,60
2018-01-25T20:32:58.867Z,60
2018-01-25T20:33:12.026Z,55
2018-01-25T20:33:25.621Z,50
2018-01-25T20:33:37.299Z,50
2018-01-25T20:33:50.369Z,50
2018-01-25T20:34:02.954Z,50
2018-01-25T20:34:15.153Z,45
2018-01-25T20:34:27.814Z,45
2018-01-25T20:34:40.436Z,45
2018-01-25T20:34:52.543Z,45
2018-01-25T20:35:05.642Z,45
2018-01-25T20:35:17.296Z,45
2018-01-25T20:35:29.879Z,45
2018-01-25T20:35:42.069Z,45
2018-01-25T20:35:54.188Z,45
2018-01-25T20:36:07.240Z,45
2018-01-25T20:36:19.401Z,45
2018-01-25T20:36:32.419Z,45
2018-01-25T20:36:45.523Z,45
2018-01-25T20:36:58.117Z,40
2018-01-25T20:37:11.104Z,40
2018-01-25T20:37:23.246Z,40
2018-01-25T20:37:35.793Z,40
2018-01-25T20:37:48.845Z,40
2018-01-25T20:38:02.030Z,35
2018-01-25T20:38:15.157Z,35
2018-01-25T20:38:28.263Z,35
2018-01-25T20:38:41.280Z,35
2018-01-25T20:38:53.820Z,35
2018-01-25T20:39:06.504Z,40
2018-01-25T20:39:19.028Z,40
2018-01-25T20:39:32.038Z,40
2018-01-25T20:39:45.189Z,40
2018-01-25T20:39:58.239Z,40
2018-01-25T20:40:11.282Z,40
2018-01-25T20:40:23.426Z,40
2018-01-25T20:40:36.615Z,40
2018-01-25T20:40:49.232Z,40
2018-01-25T20:41:02.275Z,40
2018-01-25T20:41:15.286Z,45
2018-01-25T20:41:28.395Z,45
2018-01-25T20:41:41.510Z,45
2018-01-25T20:41:54.200Z,50
2018-01-25T20:42:07.192Z,50
2018-01-25T20:42:19.462Z,50
2018-01-25T20:42:31.978Z,55
2018-01-25T20:42:44.623Z,55
2018-01-25T20:42:57.728Z,55
2018-01-25T20:43:10.812Z,55
2018-01-25T20:43:22.968Z,55
2018-01-25T20:43:35.125Z,60
2018-01-25T20:43:47.677Z,60
2018-01-25T20:44:00.297Z,60
2018-01-25T20:44:12.481Z,60
2018-01-25T20:44:25.630Z,60
2018-01-25T20:44:37.764Z,60
2018-01-25T20:44:50.427Z,60
2018-01-25T20:45:03.083Z,65
2018-01-25T20:45:14.720Z,65
2018-01-25T20:45:26.884Z,65
2018-01-25T20:45:39.444Z,65
2018-01-25T20:45:52.500Z,70
2018-01-25T20:46:05.609Z,70
2018-01-25T20:46:18.141Z,70
2018-01-25T20:46:31.193Z,65
2018-01-25T20:46:43.385Z,65
2018-01-25T20:46:56.479Z,65
2018-01-25T20:47:09.545Z,65
2018-01-25T20:47:22.643Z,60
2018-01-25T20:47:35.241Z,60
2018-01-25T20:47:47.753Z,60
2018-01-25T20:48:00.780Z,55
2018-01-25T20:48:13.467Z,55
2018-01-25T20:48:27.001Z,50
2018-01-25T20:48:39.583Z,50
2018-01-25T20:48:52.188Z,45
2018-01-25T20:49:05.318Z,45
2018-01-25T20:49:18.321Z,45
2018-01-25T20:49:30.005Z,40
2018-01-25T20:49:43.042Z,40
2018-01-25T20:49:55.694Z,40
2018-01-25T20:50:08.890Z,40
2018-01-25T20:50:21.431Z,40
2018-01-25T20:50:34.484Z,40
2018-01-25T20:50:47.575Z,35
2018-01-25T20:51:00.586Z,35
2018-01-25T20:51:12.240Z,35
2018-01-25T20:51:24.852Z,35
2018-01-25T20:51:37.925Z,35
2018-01-25T20:51:50.496Z,35
2018-01-25T20:52:02.637Z,35
2018-01-25T20:52:14.277Z,35
2018-01-25T20:52:26.913Z,35
2018-01-25T20:52:40.969Z,35
2018-01-25T20:52:53.572Z,35
2018-01-25T20:53:06.749Z,30
2018-01-25T20:53:19.368Z,30
2018-01-25T20:53:31.557Z,30
2018-01-25T20:53:44.532Z,30
2018-01-25T20:53:57.593Z,30
2018-01-25T20:54:10.633Z,30
2018-01-25T20:54:23.216Z,30
2018-01-25T20:54:35.737Z,30
2018-01-25T20:54:48.817Z,30
2018-01-25T20:55:01.847Z,30
2018-01-25T20:55:15.010Z,30
2018-01-25T20:55:28.070Z,30
2018-01-25T20:55:40.662Z,30
2018-01-25T20:55:53.416Z,30
2018-01-25T20:56:06.448Z,30
2018-01-25T20:56:19.472Z,35
2018-01-25T20:56:32.525Z,35
2018-01-25T20:56:45.181Z,35
2018-01-25T20:56:58.222Z,35
2018-01-25T20:57:10.815Z,35
2018-01-25T20:57:23.888Z,40
2018-01-25T20:57:36.515Z,40
2018-01-25T20:57:49.591Z,40
2018-01-25T20:58:02.590Z,40
2018-01-25T20:58:14.739Z,40
2018-01-25T20:58:27.377Z,45
2018-01-25T20:58:40.043Z,45
2018-01-25T20:58:52.781Z,45
2018-01-25T20:59:05.397Z,45
2018-01-25T20:59:18.426Z,50
2018-01-25T20:59:30.527Z,50
2018-01-25T20:59:42.626Z,50
2018-01-25T20:59:55.701Z,55
2018-01-25T21:00:08.320Z,55
2018-01-25T21:00:20.894Z,55
2018-01-25T21:00:33.546Z,60
2018-01-25T21:00:46.626Z,60
2018-01-25T21:00:58.710Z,60
2018-01-25T21:01:11.242Z,60
2018-01-25T21:01:24.281Z,60
2018-01-25T21:01:36.872Z,65
2018-01-25T21:01:49.942Z,65
2018-01-25T21:02:03.014Z,70
2018-01-25T21:02:15.117Z,70
2018-01-25T21:02:27.693Z,70
2018-01-25T21:02:39.887Z,75
2018-01-25T21:02:52.012Z,75
2018-01-25T21:03:05.131Z,80
2018-01-25T21:03:17.301Z,80
2018-01-25T21:03:29.961Z,85
2018-01-25T21:03:43.036Z,85
2018-01-25T21:03:55.691Z,85
2018-01-25T21:04:08.808Z,85
2018-01-25T21:04:21.426Z,85
2018-01-25T21:04:33.583Z,85
2018-01-25T21:04:46.226Z,85
2018-01-25T21:04:58.333Z,85
2018-01-25T21:05:10.990Z,85
2018-01-25T21:05:23.574Z,85
2018-01-25T21:05:36.207Z,80
2018-01-25T21:05:48.889Z,80
2018-01-25T21:06:01.061Z,80
2018-01-25T21:06:13.635Z,80
2018-01-25T21:06:26.771Z,80
2018-01-25T21:06:39.366Z,80
2018-01-25T21:06:52.014Z,80
2018-01-25T21:07:05.071Z,80
2018-01-25T21:07:17.615Z,80
2018-01-25T21:07:30.681Z,80
2018-01-25T21:07:43.788Z,80
2018-01-25T21:07:56.802Z,80
2018-01-25T21:08:09.412Z,80
2018-01-25T21:08:22.072Z,80
2018-01-25T21:08:34.690Z,80
2018-01-25T21:08:46.852Z,80
2018-01-25T21:08:58.960Z,80
2018-01-25T21:09:11.051Z,80
2018-01-25T21:09:24.101Z,80
2018-01-25T21:09:36.718Z,80
2018-01-25T21:09:49.811Z,80
2018-01-25T21:10:03.134Z,85
2018-01-25T21:10:15.799Z,85
2018-01-25T21:10:28.797Z,85
2018-01-25T21:10:41.497Z,80
2018-01-25T21:10:53.112Z,80
2018-01-25T21:11:05.321Z,80
2018-01-25T21:11:18.373Z,80
2018-01-25T21:11:30.998Z,80
2018-01-25T21:11:43.656Z,80
2018-01-25T21:11:56.758Z,75
2018-01-25T21:12:09.825Z,75
2018-01-25T21:12:22.850Z,75
2018-01-25T21:12:36.008Z,75
2018-01-25T21:12:48.607Z,75
2018-01-25T21:13:00.772Z,75
2018-01-25T21:13:13.906Z,75
2018-01-25T21:13:26.967Z,75
2018-01-25T21:13:40.085Z,70
2018-01-25T21:13:52.215Z,70
2018-01-25T21:14:03.868Z,70
2018-01-25T21:14:17.206Z,70
2018-01-25T21:14:29.850Z,70
2018-01-25T21:14:42.410Z,70
2018-01-25T21:14:55.214Z,70
2018-01-25T21:15:08.263Z,65
2018-01-25T21:15:20.847Z,65
2018-01-25T21:15:33.463Z,65
2018-01-25T21:15:46.044Z,65
2018-01-25T21:15:58.638Z,65
2018-01-25T21:16:11.679Z,65
2018-01-25T21:16:24.754Z,60
2018-01-25T21:16:37.307Z,60
2018-01-25T21:16:50.359Z,60
2018-01-25T21:17:02.925Z,60
2018-01-25T21:17:16.108Z,60
2018-01-25T21:17:29.161Z,65
2018-01-25T21:17:40.776Z,65
2018-01-25T21:17:53.792Z,65
2018-01-25T21:18:06.820Z,65
2018-01-25T21:18:19.415Z,65
2018-01-25T21:18:32.482Z,65
2018-01-25T21:18:45.336Z,70
2018-01-25T21:18:57.929Z,70
2018-01-25T21:19:10.049Z,70
2018-01-25T21:19:22.650Z,70
2018-01-25T21:19:35.892Z,75
2018-01-25T21:19:48.505Z,75
2018-01-25T21:20:01.644Z,75
2018-01-25T21:20:14.236Z,70
2018-01-25T21:20:27.362Z,70
2018-01-25T21:20:40.404Z,70
2018-01-25T21:20:52.990Z,65
2018-01-25T21:21:05.142Z,65
2018-01-25T21:21:17.235Z,65
2018-01-25T21:21:30.325Z,60
2018-01-25T21:21:42.899Z,60
2018-01-25T21:21:55.061Z,60
2018-01-25T21:22:07.727Z,60
2018-01-25T21:22:19.824Z,60
2018-01-25T21:22:33.640Z,60
2018-01-25T21:22:50.768Z,60
2018-01-25T21:23:02.900Z,60
2018-01-25T21:23:15.990Z,55
2018-01-25T21:23:29.080Z,55
2018-01-25T21:23:42.396Z,55
2018-01-25T21:23:54.494Z,55
2018-01-25T21:24:07.075Z,55
2018-01-25T21:24:19.272Z,55
2018-01-25T21:24:32.373Z,50
2018-01-25T21:24:45.417Z,50
2018-01-25T21:24:57.627Z,50
2018-01-25T21:25:10.708Z,50
2018-01-25T21:25:24.707Z,50
2018-01-25T21:25:42.670Z,55
2018-01-25T21:25:55.308Z,55
2018-01-25T21:26:07.614Z,50
2018-01-25T21:26:19.356Z,50
2018-01-25T21:26:31.961Z,50
2018-01-25T21:26:45.043Z,50
2018-01-25T21:26:57.227Z,50
2018-01-25T21:27:10.361Z,50
2018-01-25T21:27:23.354Z,50
2018-01-25T21:27:35.976Z,45
2018-01-25T21:27:48.986Z,45
2018-01-25T21:28:02.077Z,45
2018-01-25T21:28:14.248Z,40
2018-01-25T21:28:27.321Z,40
2018-01-25T21:28:39.912Z,40
2018-01-25T21:28:52.999Z,35
2018-01-25T21:29:05.649Z,35
2018-01-25T21:29:18.259Z,35
2018-01-25T21:29:31.364Z,35
2018-01-25T21:29:43.941Z,35
2018-01-25T21:29:57.052Z,35
2018-01-25T21:30:09.614Z,35
2018-01-25T21:30:22.185Z,30
2018-01-25T21:30:35.271Z,30
2018-01-25T21:30:47.437Z,30
2018-01-25T21:31:00.061Z,30
2018-01-25T21:31:12.629Z,30
2018-01-25T21:31:25.699Z,25
2018-01-25T21:31:38.814Z,25
2018-01-25T21:31:51.473Z,25
2018-01-25T21:32:03.523Z,25
2018-01-25T21:32:16.575Z,25
2018-01-25T21:32:29.730Z,25
2018-01-25T21:32:42.867Z,25
2018-01-25T21:32:55.886Z,25